createdAt,value
2018-07-19T00:01:20.073Z,91.00
2018-07-19T00:03:50.422Z,91.10
2018-07-19T00:06:20.712Z,90.90
2018-07-19T00:08:51.062Z,90.90
2018-07-19T00:11:21.419Z,90.80
2018-07-19T00:13:51.766Z,90.80
2018-07-19T00:16:22.083Z,90.90
2018-07-19T00:18:52.479Z,90.90
2018-07-19T00:21:22.746Z,90.80
2018-07-19T00:23:53.066Z,90.60
2018-07-19T00:26:23.421Z,90.30
2018-07-19T00:28:53.737Z,90.50
2018-07-19T00:31:24.092Z,90.00
2018-07-19T00:33:54.426Z,90.30
2018-07-19T00:36:24.712Z,90.70
2018-07-19T00:38:55.034Z,90.90
2018-07-19T00:41:25.325Z,90.90
2018-07-19T00:43:55.668Z,91.20
2018-07-19T00:46:26.006Z,91.40
2018-07-19T00:48:56.368Z,92.30
2018-07-19T00:51:26.756Z,92.00
2018-07-19T00:53:57.109Z,91.70
2018-07-19T00:56:27.687Z,91.50
2018-07-19T00:58:58.045Z,91.60
2018-07-19T01:01:28.440Z,91.90
2018-07-19T01:03:58.911Z,92.10
2018-07-19T01:06:29.226Z,92.30
2018-07-19T01:08:59.592Z,92.60
2018-07-19T01:11:29.952Z,91.90
2018-07-19T01:14:00.242Z,91.80
2018-07-19T01:16:30.556Z,92.50
2018-07-19T01:19:00.848Z,92.90
2018-07-19T01:21:31.348Z,92.90
2018-07-19T01:24:02.134Z,92.70
2018-07-19T01:26:32.424Z,92.80
2018-07-19T01:29:02.804Z,93.10
2018-07-19T01:31:33.124Z,93.20
2018-07-19T01:34:03.496Z,93.50
2018-07-19T01:36:33.760Z,93.70
2018-07-19T01:39:05.185Z,93.80
2018-07-19T01:42:27.081Z,94.00
2018-07-19T01:44:57.503Z,94.10
2018-07-19T01:47:27.959Z,94.00
2018-07-19T01:49:58.298Z,94.00
2018-07-19T01:52:28.745Z,94.30
2018-07-19T01:54:59.101Z,94.40
2018-07-19T01:57:29.431Z,94.40
2018-07-19T01:59:59.798Z,94.60
2018-07-19T02:02:30.125Z,94.60
2018-07-19T02:05:00.436Z,94.50
2018-07-19T02:07:30.726Z,94.50
2018-07-19T02:10:01.091Z,94.60
2018-07-19T02:12:31.519Z,94.60
2018-07-19T02:15:01.905Z,94.60
2018-07-19T02:17:32.248Z,94.70
2018-07-19T02:22:32.516Z,94.90
2018-07-19T02:25:02.849Z,95.00
2018-07-19T02:27:33.109Z,94.70
2018-07-19T02:30:03.551Z,94.80
2018-07-19T02:32:33.899Z,94.70
2018-07-19T02:35:04.301Z,94.80
2018-07-19T02:37:34.629Z,94.90
2018-07-19T02:40:05.161Z,94.90
2018-07-19T02:42:35.517Z,94.90
2018-07-19T02:45:05.816Z,94.90
2018-07-19T02:47:36.120Z,94.80
2018-07-19T02:50:06.596Z,94.90
2018-07-19T02:52:36.884Z,94.90
2018-07-19T02:55:07.217Z,95.10
2018-07-19T02:57:37.526Z,95.20
2018-07-19T03:00:07.949Z,95.30
2018-07-19T03:02:38.237Z,94.80
2018-07-19T03:05:08.601Z,95.20
2018-07-19T03:07:38.936Z,95.10
2018-07-19T03:10:09.297Z,95.40
2018-07-19T03:12:39.592Z,95.40
2018-07-19T03:15:09.551Z,95.50
2018-07-19T03:17:39.914Z,95.60
2018-07-19T03:20:10.231Z,95.50
2018-07-19T03:22:40.573Z,95.50
2018-07-19T03:25:10.848Z,95.50
2018-07-19T03:27:41.121Z,95.60
2018-07-19T03:30:11.436Z,95.30
2018-07-19T03:32:41.727Z,95.20
2018-07-19T03:35:12.229Z,95.20
2018-07-19T03:37:42.553Z,95.20
2018-07-19T03:40:13.066Z,95.20
2018-07-19T03:42:43.322Z,95.30
2018-07-19T03:45:13.592Z,95.40
2018-07-19T03:47:43.893Z,95.20
2018-07-19T03:50:14.308Z,95.50
2018-07-19T03:52:44.661Z,95.40
2018-07-19T03:55:14.982Z,95.70
2018-07-19T03:57:45.366Z,95.40
2018-07-19T04:00:15.688Z,95.40
2018-07-19T04:02:46.044Z,95.40
2018-07-19T04:05:16.423Z,95.60
2018-07-19T04:07:46.738Z,95.50
2018-07-19T04:10:17.099Z,95.30
2018-07-19T04:12:47.478Z,95.40
2018-07-19T04:15:17.929Z,95.40
2018-07-19T04:17:56.154Z,95.30
2018-07-19T04:33:17.525Z,95.50
2018-07-19T04:35:48.277Z,94.80
2018-07-19T04:38:18.871Z,94.60
2018-07-19T04:40:49.149Z,94.90
2018-07-19T04:43:19.544Z,95.10
2018-07-19T04:45:49.895Z,95.30
2018-07-19T04:48:20.267Z,95.10
2018-07-19T04:50:50.580Z,94.80
2018-07-19T04:53:20.899Z,94.80
2018-07-19T04:55:51.207Z,94.80
2018-07-19T04:58:21.607Z,94.70
2018-07-19T05:00:51.933Z,94.40
2018-07-19T05:03:22.222Z,94.40
2018-07-19T05:05:52.581Z,94.30
2018-07-19T05:08:22.831Z,93.30
2018-07-19T05:10:53.188Z,93.20
2018-07-19T05:13:23.485Z,93.10
2018-07-19T05:15:54.000Z,93.30
2018-07-19T05:18:24.280Z,93.30
2018-07-19T05:20:54.561Z,93.40
2018-07-19T05:23:24.897Z,93.50
2018-07-19T05:25:55.868Z,93.40
2018-07-19T05:28:26.295Z,93.30
2018-07-19T05:30:56.598Z,93.40
2018-07-19T05:33:26.889Z,93.70
2018-07-19T05:35:57.215Z,93.90
2018-07-19T05:38:27.546Z,94.00
2018-07-19T05:40:57.853Z,93.90
2018-07-19T05:43:28.189Z,93.60
2018-07-19T05:45:58.546Z,93.80
2018-07-19T05:48:28.788Z,94.00
2018-07-19T05:50:59.146Z,94.00
2018-07-19T05:53:29.453Z,93.70
2018-07-19T05:55:59.820Z,93.80
2018-07-19T05:58:30.141Z,94.00
2018-07-19T06:01:01.377Z,94.30
2018-07-19T06:03:31.689Z,93.70
2018-07-19T06:06:02.035Z,93.50
2018-07-19T06:08:32.276Z,93.10
2018-07-19T06:11:02.789Z,92.80
2018-07-19T06:13:34.501Z,92.40
2018-07-19T06:16:05.207Z,92.50
2018-07-19T06:18:35.507Z,92.30
2018-07-19T06:21:05.817Z,92.20
2018-07-19T06:23:36.154Z,92.40
2018-07-19T06:26:06.719Z,92.00
2018-07-19T06:28:36.988Z,91.80
2018-07-19T06:31:07.430Z,91.60
2018-07-19T06:33:37.723Z,91.00
2018-07-19T06:36:08.018Z,91.00
2018-07-19T06:38:38.712Z,90.30
2018-07-19T06:41:09.941Z,90.50
2018-07-19T06:43:40.174Z,90.30
2018-07-19T06:46:10.614Z,90.30
2018-07-19T06:48:40.933Z,90.50
2018-07-19T06:51:11.331Z,90.20
2018-07-19T06:53:41.615Z,90.10
2018-07-19T06:56:11.929Z,90.00
2018-07-19T06:58:42.253Z,89.80
2018-07-19T07:01:12.561Z,89.80
2018-07-19T07:03:42.931Z,90.10
2018-07-19T07:06:13.235Z,89.70
2018-07-19T07:08:43.565Z,88.90
2018-07-19T07:11:13.813Z,87.90
2018-07-19T07:13:44.133Z,87.80
2018-07-19T07:16:14.470Z,87.90
2018-07-19T07:18:44.745Z,88.80
2018-07-19T07:21:15.143Z,89.30
2018-07-19T07:23:45.385Z,87.40
2018-07-19T07:26:17.969Z,85.10
2018-07-19T07:28:48.339Z,84.80
2018-07-19T07:31:18.634Z,83.90
2018-07-19T07:33:48.996Z,82.90
2018-07-19T07:36:19.226Z,82.60
2018-07-19T07:38:49.579Z,81.80
2018-07-19T07:41:19.838Z,81.50
2018-07-19T07:43:50.129Z,79.50
2018-07-19T07:46:20.532Z,79.20
2018-07-19T07:48:50.869Z,79.40
2018-07-19T07:53:51.534Z,79.90
2018-07-19T07:56:21.868Z,80.60
2018-07-19T07:58:52.132Z,78.40
2018-07-19T08:01:22.417Z,78.30
2018-07-19T08:03:52.757Z,79.50
2018-07-19T08:06:23.083Z,76.80
2018-07-19T08:08:53.345Z,75.80
2018-07-19T08:11:23.729Z,76.80
2018-07-19T08:13:54.398Z,75.30
2018-07-19T08:16:24.793Z,73.20
2018-07-19T08:18:55.102Z,73.90
2018-07-19T08:21:25.476Z,74.40
2018-07-19T08:23:55.847Z,74.00
2018-07-19T08:26:26.133Z,75.20
2018-07-19T08:28:56.504Z,75.10
2018-07-19T08:31:26.896Z,75.20
2018-07-19T08:33:57.291Z,74.70
2018-07-19T08:36:27.727Z,71.20
2018-07-19T08:38:58.053Z,71.60
2018-07-19T08:41:28.818Z,71.50
2018-07-19T08:43:59.161Z,68.90
2018-07-19T08:46:29.528Z,68.60
2018-07-19T08:48:59.850Z,69.90
2018-07-19T08:51:30.765Z,70.80
2018-07-19T08:54:01.141Z,68.60
2018-07-19T08:56:31.579Z,69.50
2018-07-19T08:59:02.022Z,70.20
2018-07-19T09:01:32.418Z,70.00
2018-07-19T09:04:02.854Z,69.50
2018-07-19T09:06:33.253Z,69.50
2018-07-19T09:09:03.775Z,70.80
2018-07-19T09:11:34.141Z,68.00
2018-07-19T09:14:04.728Z,67.70
2018-07-19T09:16:35.042Z,69.00
2018-07-19T09:19:05.816Z,67.00
2018-07-19T09:21:36.206Z,65.80
2018-07-19T09:24:06.629Z,67.50
2018-07-19T09:26:37.033Z,64.80
2018-07-19T09:29:07.424Z,64.60
2018-07-19T09:31:37.736Z,64.60
2018-07-19T09:34:08.116Z,65.80
2018-07-19T09:36:38.465Z,65.00
2018-07-19T09:39:11.890Z,65.40
2018-07-19T09:41:43.058Z,64.20
2018-07-19T09:44:13.358Z,64.80
2018-07-19T09:49:13.690Z,65.10
2018-07-19T09:54:29.653Z,68.40
2018-07-19T09:56:59.944Z,68.40
2018-07-19T09:59:30.203Z,68.40
2018-07-19T10:02:00.534Z,68.50
2018-07-19T10:04:31.697Z,68.70
2018-07-19T10:07:02.043Z,68.90
2018-07-19T10:09:32.354Z,68.80
2018-07-19T10:12:02.679Z,69.20
2018-07-19T10:14:32.964Z,69.30
2018-07-19T10:17:03.606Z,68.40
2018-07-19T10:19:33.930Z,69.20
2018-07-19T10:22:04.357Z,68.40
2018-07-19T10:24:34.778Z,69.00
2018-07-19T10:27:05.125Z,67.20
2018-07-19T10:29:35.464Z,67.50
2018-07-19T10:32:06.064Z,69.40
2018-07-19T10:34:36.317Z,68.90
2018-07-19T10:37:06.677Z,69.20
2018-07-19T10:39:37.017Z,69.10
2018-07-19T10:42:07.420Z,68.10
2018-07-19T10:44:37.768Z,68.50
2018-07-19T10:47:08.285Z,68.20
2018-07-19T10:49:38.551Z,68.40
2018-07-19T10:52:08.824Z,68.10
2018-07-19T10:54:39.066Z,68.60
2018-07-19T10:57:09.728Z,68.40
2018-07-19T10:59:39.993Z,68.30
2018-07-19T11:02:10.424Z,67.20
2018-07-19T11:04:40.662Z,65.80
2018-07-19T11:07:10.908Z,66.30
2018-07-19T11:09:41.201Z,65.60
2018-07-19T11:12:11.587Z,66.20
2018-07-19T11:14:41.786Z,65.30
2018-07-19T11:17:12.140Z,65.70
2018-07-19T11:19:42.387Z,64.50
2018-07-19T11:22:12.647Z,63.40
2018-07-19T11:24:42.966Z,62.50
2018-07-19T11:27:13.341Z,62.60
2018-07-19T11:29:43.877Z,62.50
2018-07-19T11:32:14.160Z,62.00
2018-07-19T11:34:44.444Z,61.90
2018-07-19T11:37:14.810Z,61.90
2018-07-19T11:39:45.285Z,61.90
2018-07-19T11:42:15.702Z,63.00
2018-07-19T11:44:46.187Z,62.20
2018-07-19T11:47:16.541Z,63.00
2018-07-19T11:49:46.857Z,63.10
2018-07-19T11:52:17.225Z,65.10
2018-07-19T11:54:47.554Z,65.60
2018-07-19T11:57:17.803Z,66.20
2018-07-19T11:59:48.060Z,67.50
2018-07-19T12:02:18.388Z,66.80
2018-07-19T12:04:48.696Z,65.90
2018-07-19T12:07:18.937Z,66.70
2018-07-19T12:09:49.265Z,64.90
2018-07-19T12:12:20.018Z,64.50
2018-07-19T12:14:50.263Z,65.50
2018-07-19T12:17:20.538Z,66.70
2018-07-19T12:19:50.844Z,66.20
2018-07-19T12:22:21.145Z,67.50
2018-07-19T12:24:51.397Z,65.00
2018-07-19T12:27:21.748Z,64.40
2018-07-19T12:29:52.017Z,63.80
2018-07-19T12:32:22.318Z,64.10
2018-07-19T12:34:52.581Z,64.70
2018-07-19T12:37:22.885Z,61.60
2018-07-19T12:39:53.228Z,62.20
2018-07-19T12:42:23.649Z,64.20
2018-07-19T12:44:53.925Z,63.10
2018-07-19T12:47:24.239Z,62.30
2018-07-19T12:49:54.496Z,61.50
2018-07-19T12:52:24.774Z,61.10
2018-07-19T12:54:55.056Z,59.70
2018-07-19T12:57:25.376Z,60.70
2018-07-19T12:59:55.658Z,61.80
2018-07-19T13:02:25.942Z,59.90
2018-07-19T13:07:26.187Z,62.30
2018-07-19T13:09:56.464Z,60.90
2018-07-19T13:12:27.197Z,59.50
2018-07-19T13:14:57.495Z,57.40
2018-07-19T13:17:27.811Z,57.70
2018-07-19T13:19:58.101Z,57.30
2018-07-19T13:22:28.495Z,57.50
2018-07-19T13:24:58.957Z,57.60
2018-07-19T13:32:29.332Z,60.30
2018-07-19T13:34:59.739Z,60.40
2018-07-19T13:37:30.242Z,60.10
2018-07-19T13:40:00.554Z,60.50
2018-07-19T13:42:30.942Z,61.90
2018-07-19T13:45:01.302Z,62.10
2018-07-19T13:47:31.699Z,62.00
2018-07-19T13:50:02.018Z,61.10
2018-07-19T13:53:50.959Z,62.20
2018-07-19T13:56:21.538Z,61.70
2018-07-19T13:58:51.768Z,62.30
2018-07-19T14:01:22.141Z,61.60
2018-07-19T14:03:52.449Z,62.00
2018-07-19T14:06:22.774Z,63.00
2018-07-19T14:08:53.087Z,62.90
2018-07-19T14:11:23.464Z,62.90
2018-07-19T14:13:54.069Z,63.30
2018-07-19T14:16:24.459Z,64.10
2018-07-19T14:18:54.825Z,64.80
2018-07-19T14:21:25.137Z,65.30
2018-07-19T14:23:55.548Z,65.70
2018-07-19T14:26:26.048Z,66.40
2018-07-19T14:28:57.187Z,66.50
2018-07-19T14:31:27.568Z,65.90
2018-07-19T14:33:57.905Z,65.30
2018-07-19T14:36:28.205Z,63.50
2018-07-19T14:38:58.533Z,64.10
2018-07-19T14:41:28.908Z,63.80
2018-07-19T14:43:59.199Z,63.40
2018-07-19T14:46:29.476Z,64.00
2018-07-19T14:48:59.784Z,63.90
2018-07-19T14:51:30.114Z,63.10
2018-07-19T14:54:00.556Z,61.40
2018-07-19T14:56:30.880Z,59.10
2018-07-19T14:59:01.151Z,56.30
2018-07-19T15:01:31.457Z,53.40
2018-07-19T15:04:01.708Z,52.60
2018-07-19T15:06:32.017Z,51.80
2018-07-19T15:09:02.392Z,50.50
2018-07-19T15:11:32.687Z,50.60
2018-07-19T15:14:03.119Z,51.00
2018-07-19T15:16:33.465Z,52.10
2018-07-19T15:19:03.759Z,51.60
2018-07-19T15:21:34.056Z,51.90
2018-07-19T15:24:04.524Z,49.70
2018-07-19T15:26:34.874Z,49.50
2018-07-19T15:29:05.220Z,48.80
2018-07-19T15:31:35.528Z,47.60
2018-07-19T15:34:05.854Z,46.90
2018-07-19T15:36:36.161Z,44.10
2018-07-19T15:39:09.044Z,43.50
2018-07-19T15:41:39.695Z,42.70
2018-07-19T15:44:10.531Z,41.40
2018-07-19T15:46:41.048Z,41.90
2018-07-19T15:49:11.406Z,43.20
2018-07-19T15:51:41.760Z,46.30
2018-07-19T15:54:12.098Z,49.40
2018-07-19T15:56:42.513Z,51.00
2018-07-19T15:59:12.867Z,52.20
2018-07-19T16:01:43.139Z,53.60
2018-07-19T16:04:13.822Z,54.60
2018-07-19T16:06:44.367Z,55.10
2018-07-19T16:09:14.692Z,55.90
2018-07-19T16:11:45.035Z,55.70
2018-07-19T16:14:15.371Z,55.70
2018-07-19T16:16:45.710Z,55.60
2018-07-19T16:19:16.168Z,55.40
2018-07-19T16:21:46.470Z,55.90
2018-07-19T16:24:16.848Z,54.30
2018-07-19T16:26:47.275Z,53.20
2018-07-19T16:29:17.582Z,52.70
2018-07-19T16:31:47.955Z,50.70
2018-07-19T16:34:18.263Z,49.60
2018-07-19T16:39:18.497Z,46.20
2018-07-19T16:44:18.873Z,48.10
2018-07-19T16:46:49.175Z,48.60
2018-07-19T16:51:49.403Z,51.60
2018-07-19T16:56:49.657Z,54.00
2018-07-19T16:59:20.403Z,54.70
2018-07-19T17:01:50.734Z,55.70
2018-07-19T17:04:21.129Z,57.80
2018-07-19T17:06:51.618Z,58.70
2018-07-19T17:09:21.959Z,60.50
2018-07-19T17:11:52.312Z,58.70
2018-07-19T17:14:22.806Z,59.10
2018-07-19T17:16:53.167Z,59.00
2018-07-19T17:21:53.495Z,58.90
2018-07-19T17:24:23.832Z,57.70
2018-07-19T17:29:24.110Z,60.30
2018-07-19T17:31:54.459Z,59.10
2018-07-19T17:34:24.820Z,59.80
2018-07-19T17:36:55.192Z,60.50
2018-07-19T17:39:25.546Z,60.50
2018-07-19T17:41:55.853Z,61.20
2018-07-19T17:44:26.269Z,61.80
2018-07-19T17:46:56.528Z,61.90
2018-07-19T17:49:26.859Z,62.10
2018-07-19T17:51:57.163Z,62.40
2018-07-19T17:54:27.552Z,63.10
2018-07-19T17:56:57.812Z,63.80
2018-07-19T17:59:28.102Z,64.40
2018-07-19T18:01:58.457Z,64.60
2018-07-19T18:04:28.806Z,65.00
2018-07-19T18:06:59.148Z,65.90
2018-07-19T18:09:29.448Z,65.30
2018-07-19T18:11:59.992Z,65.40
2018-07-19T18:14:30.694Z,67.70
2018-07-19T18:17:00.985Z,68.10
2018-07-19T18:19:31.442Z,68.30
2018-07-19T18:22:01.850Z,66.30
2018-07-19T18:24:32.227Z,67.30
2018-07-19T18:27:02.595Z,69.10
2018-07-19T18:29:32.957Z,67.00
2018-07-19T18:32:03.357Z,67.60
2018-07-19T18:34:33.713Z,68.30
2018-07-19T18:37:04.051Z,67.20
2018-07-19T18:39:34.397Z,68.70
2018-07-19T18:42:04.814Z,67.80
2018-07-19T18:44:35.177Z,68.30
2018-07-19T18:47:05.627Z,68.70
2018-07-19T18:49:36.307Z,70.30
2018-07-19T18:52:06.809Z,70.20
2018-07-19T18:54:37.264Z,69.00
2018-07-19T18:57:07.616Z,71.10
2018-07-19T18:59:38.538Z,71.50
2018-07-19T19:02:09.052Z,72.50
2018-07-19T19:04:39.863Z,72.50
2018-07-19T19:09:40.174Z,74.00
2018-07-19T19:12:10.832Z,74.10
2018-07-19T19:14:41.216Z,74.80
2018-07-19T19:17:11.691Z,73.50
2018-07-19T19:19:42.029Z,75.10
2018-07-19T19:22:12.400Z,75.20
2018-07-19T19:24:43.341Z,75.70
2018-07-19T19:27:13.742Z,75.20
2018-07-19T19:29:44.113Z,74.90
2018-07-19T19:34:44.392Z,74.30
2018-07-19T19:37:14.791Z,75.40
2018-07-19T19:39:45.105Z,75.90
2018-07-19T19:42:15.479Z,76.50
2018-07-19T19:44:45.834Z,76.60
2018-07-19T19:47:16.192Z,77.00
2018-07-19T19:49:46.583Z,76.20
2018-07-19T19:52:17.636Z,75.60
2018-07-19T19:54:47.973Z,76.90
2018-07-19T19:57:18.855Z,77.00
2018-07-19T19:59:49.180Z,77.60
2018-07-19T20:02:19.535Z,76.90
2018-07-19T20:04:49.848Z,76.10
2018-07-19T20:07:20.341Z,76.80
2018-07-19T20:09:50.614Z,77.40
2018-07-19T20:12:20.934Z,78.50
2018-07-19T20:14:51.224Z,77.50
2018-07-19T20:17:21.510Z,77.30
2018-07-19T20:19:51.815Z,78.90
2018-07-19T20:22:22.337Z,79.10
2018-07-19T20:24:52.622Z,78.40
2018-07-19T20:27:22.993Z,79.50
2018-07-19T20:29:53.448Z,80.00
2018-07-19T20:32:23.837Z,80.10
2018-07-19T20:34:54.084Z,80.50
2018-07-19T20:39:54.343Z,80.30
2018-07-19T20:42:24.656Z,79.60
2018-07-19T20:44:54.953Z,80.60
2018-07-19T20:47:25.263Z,80.20
2018-07-19T20:49:55.583Z,80.70
2018-07-19T20:52:25.945Z,80.40
2018-07-19T20:54:56.393Z,80.40
2018-07-19T20:57:26.710Z,81.50
2018-07-19T20:59:57.072Z,80.50
2018-07-19T21:02:27.445Z,80.40
2018-07-19T21:04:57.816Z,80.90
2018-07-19T21:07:28.199Z,81.50
2018-07-19T21:09:58.922Z,81.90
2018-07-19T21:12:29.307Z,81.20
2018-07-19T21:14:59.748Z,82.30
2018-07-19T21:17:30.176Z,82.80
2018-07-19T21:20:00.518Z,83.50
2018-07-19T21:22:30.906Z,83.60
2018-07-19T21:25:01.274Z,84.10
2018-07-19T21:30:02.045Z,83.90
2018-07-19T21:32:32.427Z,84.10
2018-07-19T21:35:02.942Z,84.20
2018-07-19T21:37:33.420Z,84.40
2018-07-19T21:40:03.867Z,84.70
2018-07-19T21:42:34.388Z,84.70
2018-07-19T21:45:05.206Z,84.90
2018-07-19T21:47:35.752Z,85.60
2018-07-19T21:50:06.577Z,85.10
2018-07-19T21:52:36.969Z,84.70
2018-07-19T21:55:07.401Z,85.00
2018-07-19T21:57:37.775Z,84.90
2018-07-19T22:00:08.456Z,84.60
2018-07-19T22:02:38.986Z,84.90
2018-07-19T22:05:09.628Z,85.70
2018-07-19T22:07:40.106Z,84.70
2018-07-19T22:10:10.560Z,85.00
2018-07-19T22:12:41.002Z,84.90
2018-07-19T22:15:11.469Z,84.80
2018-07-19T22:17:41.974Z,85.80
2018-07-19T22:20:12.709Z,86.20
2018-07-19T22:22:43.215Z,85.90
2018-07-19T22:25:13.593Z,86.20
2018-07-19T22:27:43.979Z,86.20
2018-07-19T22:30:14.468Z,86.00
2018-07-19T22:32:44.857Z,86.30
2018-07-19T22:35:15.273Z,86.60
2018-07-19T22:37:45.600Z,86.80
2018-07-19T22:40:15.912Z,86.80
2018-07-19T22:42:46.314Z,86.80
2018-07-19T22:45:16.795Z,87.00
2018-07-19T22:47:47.172Z,87.00
2018-07-19T22:50:17.609Z,87.80
2018-07-19T22:52:47.946Z,87.90
2018-07-19T22:55:18.897Z,87.90
2018-07-19T22:57:49.329Z,88.80
2018-07-19T23:00:19.735Z,88.30
2018-07-19T23:02:50.035Z,88.30
2018-07-19T23:05:20.465Z,88.20
2018-07-19T23:07:50.937Z,89.10
2018-07-19T23:10:21.404Z,89.00
2018-07-19T23:12:51.762Z,89.30
2018-07-19T23:15:22.173Z,89.50
2018-07-19T23:17:52.637Z,89.60
2018-07-19T23:20:23.032Z,89.70
2018-07-19T23:22:56.822Z,86.70
2018-07-19T23:25:27.246Z,87.00
2018-07-19T23:27:58.562Z,86.00
2018-07-19T23:30:31.423Z,86.10
2018-07-19T23:33:01.855Z,84.90
2018-07-19T23:35:36.884Z,84.00
2018-07-19T23:38:10.556Z,84.30
2018-07-19T23:40:43.460Z,84.60
2018-07-19T23:43:17.313Z,84.70
2018-07-19T23:45:52.982Z,83.40
2018-07-19T23:48:23.333Z,84.00
2018-07-19T23:50:53.674Z,83.60
2018-07-19T23:53:24.066Z,84.40
2018-07-19T23:55:54.500Z,84.60
2018-07-19T23:58:24.874Z,83.40
